Scroll down
FLIGHT INFORMATION
All Nippon Airways

ANA8406

At Arrival Gate

EDDF
 RJAA
DATE: 2020-12-18
GATE: B46
GATE DEPARTURE: 09:30
TAKEOFF: 09:50
DATE: 2020-12-18
GATE:  -
LANDING: 20:40
GATE ARRIVAL: 20:50
FLIGHT DATA
Crew: 
Speed: 
919 kph
Altitude: 
37,025 ft
Stage Length: 
9,366.6 km
Block Time: 
11.2 hrs
Flight Time: 
10.8 hrs
Fuel Used: 
80,599 kg
Cleared Route: EDDF TOBAK SWALM FULNO ERSET ERSIL ETIDI SISMI MAG BODLA EMGAR KUNER OKPAN RONUN GARSO LEP ORVIX VANAG TITOV PIRUS TULGI BAPIN ADOGI BEGSI SUGIN RIPUT AKUGI NEMKI OLIRU OKBOS ABOBA ROLUG NUGBI VELUS BEGBA TOSPI RUBMA SURER URIRA SUNAD NIPRA MINPU ARKIM UNISO LUTEP URMAN GISOT NJC PAROM SOREB USOLI UMRAT BANUK SOTOM OLBIG OMITA OSNIK UBORA ABLAS NAROB LUPIT GOGIL NIRUN ARNAB MOPON ALUMI KTN LASAD AGINO NEKLU NAREM BADEK TELOK MANLI KAGAK HLD TEPOD NDG ONINA HRB KETOV UGABI ATODO WQG BISUN SANAR BAPRU IDBUR ARLAS DELIP LAKTA LURED IGROD HOKKE KADBO TAVIS CAYAH GTC40 BASIN GTC VIKET AKTIL SASAP ESKAS ENTAK GURIP SWAMP RJAA
TRACK DATA
50,000 ft 1,000 kts
AIRCRAFT INFO AND CUMULATIVE STATS
Aircraft Type: 
B77W
Registration: 
SELCAL: 
CJGQ
MSN/LN: 
32648 / 529
Operator: 
Total Flights: 
6
Total Block Time: 
65.1 hrs
Total Flight Time: 
63.2 hrs
Total Fuel Used: 
481,677 kg
DATALINK LOG | Newest first | Current as of: 2022-09-29 23:17:41
LABEL SEQUENCE CONTENT Dn/Up
QD524920:50 35.5▼ Dn
QC424020:40▼ Dn
2U0757RJAA 190200Z 02005KT 310V070 9999 FEW030 BKN/// 07/M04 Q1015 NOSIG▲ Up
2S0904RJAA▼ Dn
2U4302RJAA 190100Z 02010KT 9999 FEW030 SCT180 BKN/// 07/M04 Q1016 NOSIG▲ Up
2S4541RJAA▼ Dn
5U2754RJAA 190323Z 32016KT 9999 FEW030 05/M01 Q1016▲ Up
5S2927RJAA▼ Dn
QB515809:50▼ Dn
QA324009:30 213.4▼ Dn
2U1830EDDF 181450Z 16004KT 1200 R25R/P2000N R25C/1600D R25L/1400D R18/1700D BR BKN001 OVC003 05/05 Q1023 NOSIG▲ Up
2S1927EDDF▼ Dn
Q01422[LINK ACK]▲ Up
Q01422[LINK TEST]▼ Dn


AIRCRAFT HISTORY
FLIGHT DATE FLIGHT NO. ORIGIN DESTINATION CLEARED ROUTE BLOCK TIME FLIGHT TIME FUEL USED PILOT
2021-02-25ANA225RJAA RKSI RJAA TETRA ENPAR NIXIS TEPEX BIDIK MADUL SUGNO SAPRA BULGA KPO ELAPI CUN RKSI2.4 hrs2.2 hrs36,292 lbCharles Harris
2021-01-14ANA9KJFK RJAA KJFK JFK LGA STOMP HNK ART YOW 5580N 6083N 6587N 7095N 75N08 79N41 AMATI LUNOG NOGDA LUSOP DOMOR SIPVI RITUR RONOS INDIK KOMEG OMAVI ASKIB PEROD MUFTA SOPIN LEKMA LADES MOLUT OMARU PESEB ODEPI ABNAK OKNAR RIDNO DABUR SOKMU ULMIK IDIGA DITOR LIKON LUMIN WKE DASSY KABTO YOROI WKE30 RUMOI CHE TOBBY LARCH BUTOS JUGEM GUGBI BONGO ENTAK GURIP SWAMP RJAA13.9 hrs13.5 hrs227,976 lbRyan Syferd
2020-12-26ANA10RJAA KJFK RJAA GULBO TASID NOLAX IDLAN ADNAP ADGOR AGEDI PASRO POWAL PLADO PINSO POOFF PINTT PTZGR PUGGY POETT SELDM PORGE AMOTT YESKA TMSON JAGIT YXY CANYO YQH YOJ PETMA KAIIN KALLU YRL RIONA YXLNB YQT TVC ECK JHW HOXIE DMACK STENT MAGIO LVZ KJFK12.3 hrs12.1 hrs203,935 lbRyan Syferd
2020-12-18ANA8406EDDF RJAA EDDF TOBAK SWALM FULNO ERSET ERSIL ETIDI SISMI MAG BODLA EMGAR KUNER OKPAN RONUN GARSO LEP ORVIX VANAG TITOV PIRUS TULGI BAPIN ADOGI BEGSI SUGIN RIPUT AKUGI NEMKI OLIRU OKBOS ABOBA ROLUG NUGBI VELUS BEGBA TOSPI RUBMA SURER URIRA SUNAD NIPRA MINPU ARKIM UNISO LUTEP URMAN GISOT NJC PAROM SOREB USOLI UMRAT BANUK SOTOM OLBIG OMITA OSNIK UBORA ABLAS NAROB LUPIT GOGIL NIRUN ARNAB MOPON ALUMI KTN LASAD AGINO NEKLU NAREM BADEK TELOK MANLI KAGAK HLD TEPOD NDG ONINA HRB KETOV UGABI ATODO WQG BISUN SANAR BAPRU IDBUR ARLAS DELIP LAKTA LURED IGROD HOKKE KADBO TAVIS CAYAH GTC40 BASIN GTC VIKET AKTIL SASAP ESKAS ENTAK GURIP SWAMP RJAA11.2 hrs10.8 hrs177,691 lbRyan Syferd
2020-12-17ANA9655RJAA EDDF RJAA AKAGI KALON MAUKA TAGOK GOSEN SANJO HAIJI IGROD ASMER OLMIS KURIN RUSOT LUTEL AGUNI OTMIR GIRAM HAB IVADA URIMA LAPNI DOMON GIGAT DOTAK MANOD MOKET RIDLO ARELI BAMGA AMDUS ARDIB RUBIR PITIL NIROS VANAK NIRBA MIRMI KEDUK BAGOD PLR SURIN ODITA SAKUR MOLAG BEKAL PENOP NOR BINB MISOR MONAG BALKI AGOMI NONRA LEPES ULKAM ABGAR KUDEP RINOV DOMED ARBUK LURAM ODIMA BINGI UNAKI OTLES GIMET KUKUM OTMOL GATRI IXUBI ASRIS ODRUB BAVMO XEVLO EVLAN BIKRU SUVAL SOGMA GUGSU BUREL UBIGI ASMIG MAXAN ORTAG BIRKA ESEGU ODIPI KOKEB LESMO TUNIV KERAX EDDF11.8 hrs11.4 hrs186,879 lbRyan Syferd
2020-12-15ANA1KIAD RJAA KIAD JERES HAR FQM SYR TULEG ART YOW 5580N 6083N 6587N 7095N 75N08 79N41 AMATI LUNOG NOGDA LUSOP DOMOR SIPVI RITUR RONOS INDIK KOMEG OMAVI ASKIB PEROD MUFTA SOPIN LEKMA LADES MOLUT OMARU PESEB ODEPI ABNAK OKNAR RIDNO DABUR SOKMU ULMIK IDIGA DITOR LIKON LUMIN WKE YOROI RUMOI CHE TOBBY LARCH BUTOS JUGEM GUGBI BONGO ENTAK GURIP SWAMP RJAA13.4 hrs13.2 hrs229,145 lbRyan Syferd